St. George, AK

10:57 AM AKDT on April 29, 2017 (GMT -0800)
Saint George

Weather History for PAPB - February, 2013

Change the Weather History Date:

Friday, February 1, 2013

  Actual Average Record
Temperature  
Mean Temperature 28 °F -  
Max Temperature 30 °F 27 °F 36 °F (2007)
Min Temperature 26 °F 20 °F -6 °F (2012)
Degree Days  
Heating Degree Days 37    
Moisture  
Dew Point 25 °F    
Average Humidity 89    
Maximum Humidity 100    
Minimum Humidity 72    
Precipitation  
Precipitation 0.00 in - - ()
Sea Level Pressure  
Sea Level Pressure 29.46 in    
Wind  
Wind Speed 31 mph (NE)    
Max Wind Speed 45 mph    
Max Gust Speed 51 mph    
Visibility 3 miles    
Events Fog , Snow    
Averages and records for this station are not official NWS values.
T = Trace of Precipitation, MM = Missing Value Source: NWS Daily Summary

Daily Weather History Graph

Daily Weather History Graph

Search for Another Location

Airport or City:

Trip Planner

Search our weather history database for the weather conditions in past years. The results will help you decide how hot, cold, wet, or windy it might be!

Date:

Astronomy

Feb. 01, 2013 Rise Set
Actual Time 10:14 AM AKST 6:50 PM AKST
Civil Twilight 9:33 AM AKST 7:32 PM AKST
Nautical Twilight 8:47 AM AKST 8:18 PM AKST
Astronomical Twilight 8:03 AM AKST 9:02 PM AKST
Moon 1:19 AM AKST (2/1) 11:36 AM AKST (2/1)
Length of Visible Light 9h 59m
Length of Day
8h 35m
Waning Gibbous, 69% of the Moon is Illuminated
Feb 1
Waning Gibbous
Feb 3
Last Quarter
Feb 9
New
Feb 17
First Quarter
Feb 25
Full

Hourly Weather History & Observations

Time (AKST) Temp. Windchill Dew Point Humidity Pressure Visibility Wind Dir Wind Speed Gust Speed Precip Events Conditions
12:53 AM 30.0 °F 15.7 °F 24.1 °F 79% 29.75 in 10.0 mi NE 26.5 mph - 0.00 in   Clear
1:53 AM 30.0 °F 15.2 °F 23.0 °F 75% 29.73 in 10.0 mi NE 28.8 mph 36.8 mph N/A   Partly Cloudy
3:53 AM 30.0 °F 14.2 °F 21.9 °F 72% 29.70 in 9.0 mi NE 33.4 mph - 0.00 in Snow Light Snow
4:53 AM 30.0 °F 13.2 °F 21.9 °F 72% 29.67 in 9.0 mi NE 39.1 mph 43.7 mph 0.00 in Snow Light Snow
5:53 AM 28.9 °F 11.7 °F 21.9 °F 75% 29.63 in 8.0 mi NE 39.1 mph 48.3 mph 0.00 in Snow Light Snow
6:32 AM 28.4 °F 10.8 °F 21.2 °F 74% 29.64 in 2.0 mi NE 40.3 mph 49.5 mph 0.00 in Snow Light Snow
6:42 AM 28.4 °F 10.8 °F 23.0 °F 80% 29.64 in 3.0 mi NE 40.3 mph 48.3 mph 0.00 in Snow Light Snow
6:53 AM 28.9 °F 11.1 °F 23.0 °F 78% 29.60 in 3.0 mi NE 42.6 mph 47.2 mph 0.00 in Snow Light Snow
7:04 AM 28.4 °F 10.6 °F 23.0 °F 80% 29.63 in 2.0 mi NE 41.4 mph 47.2 mph 0.00 in Snow Light Snow
7:11 AM 28.4 °F 10.4 °F 21.2 °F 74% 29.62 in 1.8 mi NE 42.6 mph 47.2 mph 0.00 in Snow Light Snow
7:22 AM 28.4 °F 10.0 °F 21.2 °F 74% 29.62 in 3.0 mi NE 44.9 mph 50.6 mph 0.00 in Snow Light Snow
7:38 AM 28.4 °F 10.8 °F 23.0 °F 80% 29.61 in 1.8 mi NE 40.3 mph 48.3 mph 0.00 in Snow Light Snow
7:48 AM 28.4 °F 10.8 °F 21.2 °F 74% 29.61 in 3.0 mi NE 40.3 mph 48.3 mph 0.00 in Snow Light Snow
8:05 AM 28.4 °F 10.8 °F 21.2 °F 74% 29.60 in 9.0 mi NE 40.3 mph 46.0 mph 0.00 in Snow Light Snow
8:53 AM 28.0 °F 10.5 °F 23.0 °F 81% 29.55 in 1.8 mi NE 39.1 mph 44.9 mph 0.00 in Snow Light Snow
9:33 AM 26.6 °F 9.6 °F 24.8 °F 93% 29.58 in 1.0 mi NE 33.4 mph - 0.00 in Snow Light Snow
9:40 AM 26.6 °F 9.8 °F 24.8 °F 93% 29.57 in 1.2 mi NE 32.2 mph - 0.00 in Snow Light Snow
9:53 AM 27.0 °F 10.3 °F 24.1 °F 89% 29.54 in 1.2 mi NE 32.2 mph - 0.00 in Snow Light Snow
10:22 AM 28.4 °F 13.3 °F 24.8 °F 86% 29.57 in 2.5 mi NE 27.6 mph - 0.00 in Snow Light Snow
10:30 AM 28.4 °F 12.5 °F 24.8 °F 86% 29.56 in 2.0 mi NE 31.1 mph 36.8 mph 0.00 in Snow Light Snow
10:37 AM 28.4 °F 12.5 °F 24.8 °F 86% 29.56 in 1.0 mi NE 31.1 mph - 0.00 in Snow Light Snow
10:41 AM 28.4 °F 13.3 °F 24.8 °F 86% 29.56 in 0.8 mi NE 27.6 mph - 0.00 in Snow Light Snow
10:53 AM 28.0 °F 12.3 °F 25.0 °F 88% 29.52 in 0.5 mi NE 29.9 mph - 0.00 in Fog , Snow Snow
11:53 AM 27.0 °F 11.6 °F 25.0 °F 92% 29.52 in 0.5 mi NE 26.5 mph - 0.00 in Fog , Snow Snow
12:01 PM 26.6 °F 11.1 °F 26.6 °F 100% 29.55 in 0.5 mi NE 26.5 mph - 0.00 in Fog , Snow Snow
12:53 PM 28.0 °F 13.3 °F 26.1 °F 92% 29.50 in 0.8 mi NE 25.3 mph - 0.00 in Snow Light Snow
1:12 PM 28.4 °F 13.5 °F 26.6 °F 93% 29.52 in 1.0 mi NE 26.5 mph - 0.00 in Snow Light Snow
1:19 PM 28.4 °F 13.8 °F 26.6 °F 93% 29.52 in 0.8 mi NE 25.3 mph - 0.00 in Snow Light Snow
1:21 PM 28.4 °F 13.5 °F 26.6 °F 93% 29.52 in 0.8 mi NE 26.5 mph - 0.00 in Snow Light Snow
1:34 PM 28.4 °F 13.8 °F 26.6 °F 93% 29.51 in 1.0 mi NE 25.3 mph - 0.00 in Snow Light Snow
1:46 PM 26.6 °F 11.1 °F 26.6 °F 100% 29.50 in 1.2 mi NNE 26.5 mph - 0.00 in Snow Light Snow
1:53 PM 28.0 °F 13.0 °F 26.1 °F 92% 29.46 in 2.0 mi NE 26.5 mph - 0.00 in Snow Light Snow
2:05 PM 28.4 °F 13.3 °F 26.6 °F 93% 29.48 in 1.8 mi NNE 27.6 mph - 0.00 in Snow Light Snow
2:11 PM 28.4 °F 13.3 °F 26.6 °F 93% 29.48 in 0.8 mi NNE 27.6 mph - 0.00 in Snow Light Snow
2:18 PM 28.4 °F 13.8 °F 26.6 °F 93% 29.48 in 1.0 mi NE 25.3 mph - 0.00 in Snow Light Snow
2:23 PM 28.4 °F 13.5 °F 26.6 °F 93% 29.47 in 2.0 mi NE 26.5 mph - 0.00 in Snow Light Snow
2:43 PM 28.4 °F 13.0 °F 26.6 °F 93% 29.46 in 4.0 mi NE 28.8 mph - 0.00 in   Overcast
2:53 PM 28.0 °F 13.0 °F 26.1 °F 92% 29.42 in 4.0 mi NNE 26.5 mph - 0.00 in   Overcast
3:23 PM 28.4 °F 13.3 °F 26.6 °F 93% 29.43 in 1.8 mi NE 27.6 mph - 0.00 in Snow Light Snow
3:40 PM 28.4 °F 13.3 °F 26.6 °F 93% 29.42 in 1.0 mi NE 27.6 mph - 0.00 in Snow Light Snow
3:53 PM 28.0 °F 12.5 °F 26.1 °F 92% 29.39 in 1.0 mi NE 28.8 mph - 0.00 in Snow Light Snow
4:03 PM 28.4 °F 13.8 °F 26.6 °F 93% 29.42 in 1.2 mi NE 25.3 mph - 0.00 in Snow Light Snow
4:10 PM 28.4 °F 13.3 °F 26.6 °F 93% 29.41 in 1.2 mi NNE 27.6 mph - 0.00 in Snow Light Snow
4:16 PM 28.4 °F 13.8 °F 26.6 °F 93% 29.41 in 1.0 mi NE 25.3 mph - 0.00 in Snow Light Snow
4:23 PM 28.4 °F 13.8 °F 26.6 °F 93% 29.41 in 1.0 mi NE 25.3 mph - 0.00 in Snow Light Snow
4:53 PM 28.0 °F 13.3 °F 26.1 °F 92% 29.37 in 1.0 mi NNE 25.3 mph - 0.00 in Snow Light Snow
4:57 PM 28.4 °F 13.8 °F 26.6 °F 93% 29.40 in 0.8 mi NE 25.3 mph - 0.00 in Snow Light Snow
5:44 PM 28.4 °F 13.5 °F 26.6 °F 93% 29.37 in 1.2 mi NE 26.5 mph - 0.00 in Snow Light Snow
5:53 PM 28.0 °F 13.0 °F 26.1 °F 92% 29.33 in 1.5 mi NNE 26.5 mph - 0.00 in Snow Light Snow
5:59 PM 28.4 °F 13.8 °F 26.6 °F 93% 29.36 in 1.2 mi NE 25.3 mph - 0.00 in Snow Light Snow
6:06 PM 28.4 °F 13.5 °F 26.6 °F 93% 29.36 in 1.2 mi NE 26.5 mph - 0.00 in Snow Light Snow
6:23 PM 28.4 °F 14.4 °F 26.6 °F 93% 29.35 in 0.8 mi NE 23.0 mph - 0.00 in Snow Light Snow
6:43 PM 28.4 °F 13.8 °F 26.6 °F 93% 29.35 in 0.8 mi NE 25.3 mph - 0.00 in Snow Light Snow
6:53 PM 28.0 °F 13.0 °F 27.0 °F 96% 29.31 in 0.8 mi NE 26.5 mph - 0.00 in Snow Light Snow
7:04 PM 28.4 °F 13.8 °F 26.6 °F 93% 29.35 in 1.2 mi NE 25.3 mph - 0.00 in Snow Light Snow
7:39 PM 28.4 °F 13.8 °F 26.6 °F 93% 29.34 in 2.5 mi NE 25.3 mph - 0.00 in Snow Light Snow
7:46 PM 28.4 °F 13.8 °F 26.6 °F 93% 29.34 in 2.5 mi NE 25.3 mph - 0.00 in Snow Light Snow
7:53 PM 28.9 °F 14.5 °F 27.0 °F 92% 29.30 in 2.0 mi NE 25.3 mph - 0.00 in Snow Light Snow
8:18 PM 28.4 °F 14.1 °F 26.6 °F 93% 29.33 in 3.0 mi NE 24.2 mph - 0.00 in Snow Light Snow
8:25 PM 28.4 °F 14.1 °F 26.6 °F 93% 29.32 in 2.0 mi NE 24.2 mph - 0.00 in Snow Light Snow
8:29 PM 28.4 °F 14.4 °F 26.6 °F 93% 29.32 in 1.8 mi NE 23.0 mph - 0.00 in Snow Light Snow
8:36 PM 28.4 °F 14.1 °F 26.6 °F 93% 29.32 in 2.0 mi NE 24.2 mph - 0.00 in Snow Light Snow
8:53 PM 28.9 °F 14.5 °F 27.0 °F 92% 29.28 in 2.0 mi NE 25.3 mph - 0.00 in Snow Light Snow
9:06 PM 28.4 °F 13.5 °F 26.6 °F 93% 29.31 in 2.0 mi NE 26.5 mph - 0.00 in Snow Light Snow
9:18 PM 28.4 °F 13.5 °F 26.6 °F 93% 29.30 in 2.0 mi NE 26.5 mph - 0.00 in Snow Light Snow
9:33 PM 28.4 °F 14.1 °F 26.6 °F 93% 29.30 in 3.0 mi NE 24.2 mph - 0.00 in Snow Light Snow
9:53 PM 28.9 °F 14.8 °F 28.0 °F 96% 29.25 in 3.0 mi NE 24.2 mph - 0.00 in Snow Light Snow
10:18 PM 28.4 °F 13.5 °F 26.6 °F 93% 29.28 in 5.0 mi NE 26.5 mph - 0.00 in   Overcast
10:53 PM 30.0 °F 16.0 °F 28.0 °F 92% 29.23 in 9.0 mi NE 25.3 mph - 0.00 in   Overcast
11:53 PM 30.0 °F 16.0 °F 28.0 °F 92% 29.22 in 10.0 mi NNE 25.3 mph - N/A   Overcast